sensor_id;sensor_type;location;lat;lon;timestamp;P1;durP1;ratioP1;P2;durP2;ratioP2
17872;SDS011;36318;42.620;23.338;2022-07-29T08:39:09;8.52;;;4.15;;
17872;SDS011;36318;42.620;23.338;2022-07-29T08:41:36;4.13;;;3.83;;
17872;SDS011;36318;42.620;23.338;2022-07-29T08:44:03;5.43;;;3.50;;
17872;SDS011;36318;42.620;23.338;2022-07-29T08:46:30;4.10;;;3.25;;
17872;SDS011;36318;42.620;23.338;2022-07-29T08:48:57;4.35;;;3.20;;
17872;SDS011;36318;42.620;23.338;2022-07-29T08:51:24;4.60;;;3.55;;
17872;SDS011;36318;42.620;23.338;2022-07-29T08:53:53;5.78;;;3.40;;
17872;SDS011;36318;42.620;23.338;2022-07-29T08:56:22;6.88;;;3.72;;
17872;SDS011;36318;42.620;23.338;2022-07-29T08:58:49;3.83;;;3.53;;
17872;SDS011;36318;42.620;23.338;2022-07-29T09:01:17;4.85;;;3.75;;
17872;SDS011;36318;42.620;23.338;2022-07-29T09:03:48;5.60;;;3.70;;
17872;SDS011;36318;42.620;23.338;2022-07-29T09:06:16;4.20;;;3.80;;
17872;SDS011;36318;42.620;23.338;2022-07-29T09:08:44;4.05;;;3.63;;
17872;SDS011;36318;42.620;23.338;2022-07-29T09:11:11;4.88;;;3.90;;
17872;SDS011;36318;42.620;23.338;2022-07-29T09:13:40;6.30;;;4.07;;
17872;SDS011;36318;42.620;23.338;2022-07-29T09:16:07;4.25;;;3.85;;
17872;SDS011;36318;42.620;23.338;2022-07-29T09:18:37;4.07;;;3.40;;
17872;SDS011;36318;42.620;23.338;2022-07-29T09:21:05;4.07;;;3.75;;
17872;SDS011;36318;42.620;23.338;2022-07-29T09:24:02;5.28;;;4.15;;
17872;SDS011;36318;42.620;23.338;2022-07-29T09:26:32;4.72;;;4.05;;
17872;SDS011;36318;42.620;23.338;2022-07-29T09:29:01;4.78;;;4.10;;
17872;SDS011;36318;42.620;23.338;2022-07-29T09:31:35;4.22;;;3.83;;
17872;SDS011;36318;42.620;23.338;2022-07-29T09:34:03;4.78;;;4.28;;
17872;SDS011;36318;42.620;23.338;2022-07-29T09:36:31;6.95;;;4.07;;
17872;SDS011;36318;42.620;23.338;2022-07-29T09:39:05;4.90;;;4.15;;
17872;SDS011;36318;42.620;23.338;2022-07-29T09:41:43;4.47;;;4.07;;
17872;SDS011;36318;42.620;23.338;2022-07-29T09:44:12;7.13;;;4.72;;
17872;SDS011;36318;42.620;23.338;2022-07-29T09:46:40;5.63;;;4.00;;
17872;SDS011;36318;42.620;23.338;2022-07-29T09:49:18;5.72;;;3.95;;
17872;SDS011;36318;42.620;23.338;2022-07-29T09:51:45;4.60;;;3.83;;
17872;SDS011;36318;42.620;23.338;2022-07-29T09:54:21;4.53;;;4.13;;
17872;SDS011;36318;42.620;23.338;2022-07-29T09:56:49;5.25;;;4.40;;
17872;SDS011;36318;42.620;23.338;2022-07-29T09:59:17;11.23;;;4.47;;
17872;SDS011;36318;42.620;23.338;2022-07-29T10:01:45;4.85;;;4.32;;
17872;SDS011;36318;42.620;23.338;2022-07-29T10:04:13;6.32;;;4.28;;
17872;SDS011;36318;42.620;23.338;2022-07-29T10:06:54;5.97;;;4.28;;
17872;SDS011;36318;42.620;23.338;2022-07-29T10:09:23;6.65;;;4.55;;
17872;SDS011;36318;42.620;23.338;2022-07-29T10:12:09;4.72;;;4.32;;
17872;SDS011;36318;42.620;23.338;2022-07-29T10:14:40;5.03;;;4.15;;
17872;SDS011;36318;42.620;23.338;2022-07-29T10:17:08;5.18;;;4.38;;
17872;SDS011;36318;42.620;23.338;2022-07-29T10:19:36;6.47;;;4.32;;
17872;SDS011;36318;42.620;23.338;2022-07-29T10:22:05;5.28;;;4.65;;
17872;SDS011;36318;42.620;23.338;2022-07-29T10:24:33;7.80;;;4.50;;
17872;SDS011;36318;42.620;23.338;2022-07-29T10:27:01;6.15;;;4.60;;
17872;SDS011;36318;42.620;23.338;2022-07-29T10:29:29;7.55;;;4.50;;
17872;SDS011;36318;42.620;23.338;2022-07-29T10:32:02;5.75;;;4.38;;
17872;SDS011;36318;42.620;23.338;2022-07-29T10:34:55;5.50;;;4.32;;
17872;SDS011;36318;42.620;23.338;2022-07-29T10:37:33;4.90;;;4.32;;
17872;SDS011;36318;42.620;23.338;2022-07-29T10:40:26;5.68;;;4.57;;
17872;SDS011;36318;42.620;23.338;2022-07-29T10:43:19;4.03;;;3.63;;
17872;SDS011;36318;42.620;23.338;2022-07-29T10:45:49;5.25;;;4.38;;
17872;SDS011;36318;42.620;23.338;2022-07-29T10:48:24;5.85;;;3.95;;
17872;SDS011;36318;42.620;23.338;2022-07-29T10:50:58;6.63;;;3.95;;
17872;SDS011;36318;42.620;23.338;2022-07-29T10:56:23;4.35;;;3.95;;
17872;SDS011;36318;42.620;23.338;2022-07-29T11:01:53;6.60;;;4.47;;
17872;SDS011;36318;42.620;23.338;2022-07-29T11:07:28;7.30;;;4.32;;
17872;SDS011;36318;42.620;23.338;2022-07-29T11:12:48;4.53;;;4.13;;
17872;SDS011;36318;42.620;23.338;2022-07-29T11:15:16;5.50;;;3.90;;
17872;SDS011;36318;42.620;23.338;2022-07-29T11:20:39;8.07;;;4.90;;
17872;SDS011;36318;42.620;23.338;2022-07-29T11:26:14;4.85;;;4.35;;
17872;SDS011;36318;42.620;23.338;2022-07-29T11:29:00;4.53;;;4.13;;
17872;SDS011;36318;42.620;23.338;2022-07-29T11:31:39;5.03;;;4.53;;
17872;SDS011;36318;42.620;23.338;2022-07-29T11:34:17;4.63;;;4.22;;
17872;SDS011;36318;42.620;23.338;2022-07-29T11:39:43;4.93;;;4.53;;
17872;SDS011;36318;42.620;23.338;2022-07-29T11:45:04;5.65;;;4.53;;
17872;SDS011;36318;42.620;23.338;2022-07-29T11:47:32;6.43;;;4.53;;
17872;SDS011;36318;42.620;23.338;2022-07-29T11:50:02;4.55;;;4.15;;
17872;SDS011;36318;42.620;23.338;2022-07-29T11:52:33;3.95;;;3.63;;
17872;SDS011;36318;42.620;23.338;2022-07-29T11:55:03;4.50;;;4.20;;
17872;SDS011;36318;42.620;23.338;2022-07-29T11:57:33;4.85;;;4.40;;
17872;SDS011;36318;42.620;23.338;2022-07-29T12:00:03;6.53;;;5.03;;
17872;SDS011;36318;42.620;23.338;2022-07-29T12:02:39;4.95;;;4.45;;
17872;SDS011;36318;42.620;23.338;2022-07-29T12:05:07;4.60;;;3.85;;
17872;SDS011;36318;42.620;23.338;2022-07-29T12:07:37;4.90;;;4.50;;
17872;SDS011;36318;42.620;23.338;2022-07-29T12:10:06;5.95;;;4.60;;
17872;SDS011;36318;42.620;23.338;2022-07-29T12:12:34;6.32;;;4.90;;
17872;SDS011;36318;42.620;23.338;2022-07-29T12:15:12;5.30;;;4.70;;
17872;SDS011;36318;42.620;23.338;2022-07-29T12:17:42;6.50;;;4.95;;
17872;SDS011;36318;42.620;23.338;2022-07-29T12:20:09;4.55;;;4.25;;
17872;SDS011;36318;42.620;23.338;2022-07-29T12:22:40;5.20;;;4.47;;
17872;SDS011;36318;42.620;23.338;2022-07-29T12:25:10;5.15;;;4.70;;
17872;SDS011;36318;42.620;23.338;2022-07-29T12:27:40;4.93;;;4.47;;
17872;SDS011;36318;42.620;23.338;2022-07-29T12:30:09;5.00;;;4.60;;
17872;SDS011;36318;42.620;23.338;2022-07-29T12:32:38;5.80;;;5.30;;
17872;SDS011;36318;42.620;23.338;2022-07-29T12:35:06;5.43;;;4.93;;
17872;SDS011;36318;42.620;23.338;2022-07-29T12:37:35;5.25;;;4.85;;
17872;SDS011;36318;42.620;23.338;2022-07-29T12:40:06;6.03;;;5.53;;
17872;SDS011;36318;42.620;23.338;2022-07-29T12:42:34;5.85;;;5.35;;
17872;SDS011;36318;42.620;23.338;2022-07-29T12:45:02;5.20;;;4.70;;
17872;SDS011;36318;42.620;23.338;2022-07-29T12:47:30;5.78;;;5.20;;
17872;SDS011;36318;42.620;23.338;2022-07-29T12:50:08;5.10;;;4.50;;
17872;SDS011;36318;42.620;23.338;2022-07-29T12:52:36;6.20;;;5.55;;
17872;SDS011;36318;42.620;23.338;2022-07-29T12:55:03;5.32;;;4.30;;
17872;SDS011;36318;42.620;23.338;2022-07-29T12:57:43;6.40;;;5.15;;
17872;SDS011;36318;42.620;23.338;2022-07-29T13:00:11;5.65;;;4.97;;
17872;SDS011;36318;42.620;23.338;2022-07-29T13:02:40;5.75;;;4.57;;
17872;SDS011;36318;42.620;23.338;2022-07-29T13:05:09;6.93;;;5.15;;
17872;SDS011;36318;42.620;23.338;2022-07-29T13:07:38;5.68;;;4.97;;
17872;SDS011;36318;42.620;23.338;2022-07-29T13:10:13;5.63;;;4.90;;
17872;SDS011;36318;42.620;23.338;2022-07-29T13:15:30;5.55;;;4.32;;
17872;SDS011;36318;42.620;23.338;2022-07-29T13:17:58;5.25;;;4.82;;
17872;SDS011;36318;42.620;23.338;2022-07-29T13:20:25;4.95;;;4.55;;
17872;SDS011;36318;42.620;23.338;2022-07-29T13:22:55;5.43;;;4.97;;
17872;SDS011;36318;42.620;23.338;2022-07-29T13:25:24;5.32;;;4.30;;
17872;SDS011;36318;42.620;23.338;2022-07-29T13:27:52;4.80;;;4.28;;
17872;SDS011;36318;42.620;23.338;2022-07-29T13:30:21;5.95;;;4.45;;
17872;SDS011;36318;42.620;23.338;2022-07-29T13:32:49;5.47;;;4.32;;
17872;SDS011;36318;42.620;23.338;2022-07-29T13:35:17;4.63;;;4.22;;
17872;SDS011;36318;42.620;23.338;2022-07-29T13:37:45;5.15;;;4.68;;
17872;SDS011;36318;42.620;23.338;2022-07-29T13:40:12;5.75;;;4.30;;
17872;SDS011;36318;42.620;23.338;2022-07-29T13:42:41;5.80;;;4.40;;
17872;SDS011;36318;42.620;23.338;2022-07-29T13:45:08;5.43;;;4.43;;
17872;SDS011;36318;42.620;23.338;2022-07-29T13:47:37;4.60;;;4.30;;
17872;SDS011;36318;42.620;23.338;2022-07-29T13:50:05;4.55;;;4.15;;
17872;SDS011;36318;42.620;23.338;2022-07-29T13:52:35;5.47;;;4.97;;
17872;SDS011;36318;42.620;23.338;2022-07-29T13:55:03;5.30;;;4.90;;
17872;SDS011;36318;42.620;23.338;2022-07-29T13:57:31;5.30;;;4.80;;
17872;SDS011;36318;42.620;23.338;2022-07-29T13:59:59;8.05;;;5.03;;
17872;SDS011;36318;42.620;23.338;2022-07-29T14:02:26;6.18;;;4.88;;
17872;SDS011;36318;42.620;23.338;2022-07-29T14:04:53;4.97;;;4.38;;
17872;SDS011;36318;42.620;23.338;2022-07-29T14:07:20;5.78;;;4.32;;
17872;SDS011;36318;42.620;23.338;2022-07-29T14:09:47;6.00;;;4.40;;
17872;SDS011;36318;42.620;23.338;2022-07-29T14:12:14;6.40;;;5.15;;
17872;SDS011;36318;42.620;23.338;2022-07-29T14:14:40;5.05;;;4.65;;
17872;SDS011;36318;42.620;23.338;2022-07-29T14:17:09;5.65;;;4.30;;
17872;SDS011;36318;42.620;23.338;2022-07-29T14:19:35;5.10;;;4.60;;
17872;SDS011;36318;42.620;23.338;2022-07-29T14:22:03;5.10;;;4.57;;
17872;SDS011;36318;42.620;23.338;2022-07-29T14:24:30;5.05;;;4.65;;
17872;SDS011;36318;42.620;23.338;2022-07-29T14:26:57;6.50;;;5.18;;
17872;SDS011;36318;42.620;23.338;2022-07-29T14:29:24;5.90;;;5.40;;
17872;SDS011;36318;42.620;23.338;2022-07-29T14:31:51;5.30;;;4.80;;
17872;SDS011;36318;42.620;23.338;2022-07-29T14:34:19;10.48;;;4.65;;
17872;SDS011;36318;42.620;23.338;2022-07-29T14:36:46;5.97;;;5.10;;
17872;SDS011;36318;42.620;23.338;2022-07-29T14:39:13;5.43;;;5.03;;
17872;SDS011;36318;42.620;23.338;2022-07-29T14:41:41;10.95;;;9.15;;
17872;SDS011;36318;42.620;23.338;2022-07-29T14:44:08;5.45;;;4.93;;
17872;SDS011;36318;42.620;23.338;2022-07-29T14:46:35;5.30;;;4.80;;
17872;SDS011;36318;42.620;23.338;2022-07-29T14:49:02;7.45;;;6.85;;
17872;SDS011;36318;42.620;23.338;2022-07-29T14:51:30;5.43;;;4.90;;
17872;SDS011;36318;42.620;23.338;2022-07-29T14:53:57;6.28;;;4.93;;
17872;SDS011;36318;42.620;23.338;2022-07-29T14:56:23;6.20;;;5.05;;
17872;SDS011;36318;42.620;23.338;2022-07-29T14:58:50;5.82;;;5.13;;
17872;SDS011;36318;42.620;23.338;2022-07-29T15:01:17;6.35;;;5.32;;
17872;SDS011;36318;42.620;23.338;2022-07-29T15:03:44;6.22;;;5.22;;
17872;SDS011;36318;42.620;23.338;2022-07-29T15:06:11;5.63;;;5.13;;
17872;SDS011;36318;42.620;23.338;2022-07-29T15:08:39;6.70;;;5.95;;
17872;SDS011;36318;42.620;23.338;2022-07-29T15:11:06;9.82;;;5.70;;
17872;SDS011;36318;42.620;23.338;2022-07-29T15:13:33;7.10;;;6.05;;
17872;SDS011;36318;42.620;23.338;2022-07-29T15:16:00;6.68;;;5.47;;
17872;SDS011;36318;42.620;23.338;2022-07-29T15:18:27;6.13;;;5.53;;
17872;SDS011;36318;42.620;23.338;2022-07-29T15:20:54;6.13;;;5.40;;
17872;SDS011;36318;42.620;23.338;2022-07-29T15:23:21;11.85;;;9.88;;
17872;SDS011;36318;42.620;23.338;2022-07-29T15:25:49;12.35;;;8.68;;
17872;SDS011;36318;42.620;23.338;2022-07-29T15:28:16;9.80;;;8.10;;
17872;SDS011;36318;42.620;23.338;2022-07-29T15:30:43;6.30;;;5.68;;
17872;SDS011;36318;42.620;23.338;2022-07-29T15:33:10;6.55;;;5.90;;
17872;SDS011;36318;42.620;23.338;2022-07-29T15:35:37;6.50;;;5.00;;
17872;SDS011;36318;42.620;23.338;2022-07-29T15:38:04;7.32;;;6.57;;
17872;SDS011;36318;42.620;23.338;2022-07-29T15:40:31;7.10;;;6.40;;
17872;SDS011;36318;42.620;23.338;2022-07-29T15:42:59;7.50;;;6.05;;
17872;SDS011;36318;42.620;23.338;2022-07-29T15:45:34;5.68;;;5.05;;
17872;SDS011;36318;42.620;23.338;2022-07-29T15:48:01;6.50;;;5.72;;
17872;SDS011;36318;42.620;23.338;2022-07-29T15:50:28;5.63;;;5.13;;
17872;SDS011;36318;42.620;23.338;2022-07-29T15:52:55;5.75;;;5.25;;
17872;SDS011;36318;42.620;23.338;2022-07-29T15:55:22;7.50;;;5.68;;
17872;SDS011;36318;42.620;23.338;2022-07-29T15:57:49;6.88;;;5.63;;
17872;SDS011;36318;42.620;23.338;2022-07-29T16:00:18;6.82;;;6.10;;
17872;SDS011;36318;42.620;23.338;2022-07-29T16:02:46;6.13;;;5.53;;
17872;SDS011;36318;42.620;23.338;2022-07-29T16:05:13;5.50;;;5.10;;
17872;SDS011;36318;42.620;23.338;2022-07-29T16:07:40;8.13;;;5.68;;
17872;SDS011;36318;42.620;23.338;2022-07-29T16:10:07;6.30;;;5.65;;
17872;SDS011;36318;42.620;23.338;2022-07-29T16:12:34;5.38;;;4.85;;
17872;SDS011;36318;42.620;23.338;2022-07-29T16:15:01;6.10;;;5.07;;
17872;SDS011;36318;42.620;23.338;2022-07-29T16:17:30;9.77;;;5.40;;
17872;SDS011;36318;42.620;23.338;2022-07-29T16:19:56;5.20;;;4.70;;
17872;SDS011;36318;42.620;23.338;2022-07-29T16:22:23;8.18;;;4.85;;
17872;SDS011;36318;42.620;23.338;2022-07-29T16:24:50;5.20;;;4.53;;
17872;SDS011;36318;42.620;23.338;2022-07-29T16:27:17;7.15;;;4.90;;
17872;SDS011;36318;42.620;23.338;2022-07-29T16:29:48;5.15;;;4.65;;
17872;SDS011;36318;42.620;23.338;2022-07-29T16:32:16;6.60;;;4.68;;
17872;SDS011;36318;42.620;23.338;2022-07-29T16:34:44;6.40;;;3.85;;
17872;SDS011;36318;42.620;23.338;2022-07-29T16:37:11;10.65;;;4.93;;
17872;SDS011;36318;42.620;23.338;2022-07-29T16:39:40;5.72;;;5.22;;
17872;SDS011;36318;42.620;23.338;2022-07-29T16:42:06;5.60;;;4.60;;
17872;SDS011;36318;42.620;23.338;2022-07-29T16:44:33;5.20;;;4.57;;
17872;SDS011;36318;42.620;23.338;2022-07-29T16:47:00;5.38;;;4.78;;
17872;SDS011;36318;42.620;23.338;2022-07-29T16:49:27;5.43;;;4.82;;
17872;SDS011;36318;42.620;23.338;2022-07-29T16:51:55;5.90;;;4.90;;
17872;SDS011;36318;42.620;23.338;2022-07-29T16:54:22;4.82;;;4.25;;
17872;SDS011;36318;42.620;23.338;2022-07-29T16:56:49;5.90;;;4.68;;
17872;SDS011;36318;42.620;23.338;2022-07-29T16:59:16;8.00;;;4.85;;
17872;SDS011;36318;42.620;23.338;2022-07-29T17:01:43;5.20;;;4.80;;
17872;SDS011;36318;42.620;23.338;2022-07-29T17:04:09;8.00;;;4.70;;
17872;SDS011;36318;42.620;23.338;2022-07-29T17:06:39;6.10;;;5.07;;
17872;SDS011;36318;42.620;23.338;2022-07-29T17:09:08;8.30;;;5.95;;
17872;SDS011;36318;42.620;23.338;2022-07-29T17:11:39;12.15;;;7.95;;
17872;SDS011;36318;42.620;23.338;2022-07-29T17:14:06;10.68;;;7.63;;
17872;SDS011;36318;42.620;23.338;2022-07-29T17:16:33;7.57;;;5.90;;
17872;SDS011;36318;42.620;23.338;2022-07-29T17:19:00;5.38;;;4.88;;
17872;SDS011;36318;42.620;23.338;2022-07-29T17:21:27;5.88;;;4.97;;
17872;SDS011;36318;42.620;23.338;2022-07-29T17:23:54;6.10;;;5.22;;
17872;SDS011;36318;42.620;23.338;2022-07-29T17:26:24;4.97;;;4.47;;
17872;SDS011;36318;42.620;23.338;2022-07-29T17:28:52;4.57;;;4.18;;
17872;SDS011;36318;42.620;23.338;2022-07-29T17:31:19;4.72;;;4.32;;
17872;SDS011;36318;42.620;23.338;2022-07-29T17:33:46;7.15;;;4.47;;
17872;SDS011;36318;42.620;23.338;2022-07-29T17:36:13;6.45;;;4.20;;
17872;SDS011;36318;42.620;23.338;2022-07-29T17:38:48;5.65;;;4.20;;
17872;SDS011;36318;42.620;23.338;2022-07-29T17:41:15;5.93;;;3.97;;
17872;SDS011;36318;42.620;23.338;2022-07-29T17:43:44;4.60;;;4.00;;
17872;SDS011;36318;42.620;23.338;2022-07-29T17:46:10;4.80;;;4.20;;
17872;SDS011;36318;42.620;23.338;2022-07-29T17:48:37;4.95;;;4.40;;
17872;SDS011;36318;42.620;23.338;2022-07-29T17:51:05;6.75;;;4.20;;
17872;SDS011;36318;42.620;23.338;2022-07-29T17:53:32;6.03;;;4.27;;
17872;SDS011;36318;42.620;23.338;2022-07-29T17:55:58;5.70;;;4.32;;
17872;SDS011;36318;42.620;23.338;2022-07-29T17:58:25;7.03;;;4.10;;
17872;SDS011;36318;42.620;23.338;2022-07-29T18:00:53;5.35;;;4.57;;
17872;SDS011;36318;42.620;23.338;2022-07-29T18:03:20;8.00;;;4.68;;
17872;SDS011;36318;42.620;23.338;2022-07-29T18:05:47;4.37;;;3.97;;
17872;SDS011;36318;42.620;23.338;2022-07-29T18:08:14;4.70;;;4.20;;
17872;SDS011;36318;42.620;23.338;2022-07-29T18:10:42;4.93;;;4.50;;
17872;SDS011;36318;42.620;23.338;2022-07-29T18:13:10;5.13;;;4.60;;
17872;SDS011;36318;42.620;23.338;2022-07-29T18:15:37;5.15;;;4.65;;
17872;SDS011;36318;42.620;23.338;2022-07-29T18:18:06;5.17;;;4.77;;
17872;SDS011;36318;42.620;23.338;2022-07-29T18:20:34;5.38;;;4.63;;
17872;SDS011;36318;42.620;23.338;2022-07-29T18:23:00;4.88;;;4.47;;
17872;SDS011;36318;42.620;23.338;2022-07-29T18:25:27;5.28;;;4.60;;
17872;SDS011;36318;42.620;23.338;2022-07-29T18:27:54;5.72;;;4.40;;
17872;SDS011;36318;42.620;23.338;2022-07-29T18:30:21;4.75;;;4.32;;
17872;SDS011;36318;42.620;23.338;2022-07-29T18:32:49;4.90;;;4.38;;
17872;SDS011;36318;42.620;23.338;2022-07-29T18:35:17;8.63;;;4.27;;
17872;SDS011;36318;42.620;23.338;2022-07-29T18:37:44;6.65;;;4.13;;
17872;SDS011;36318;42.620;23.338;2022-07-29T18:40:11;4.57;;;4.18;;
17872;SDS011;36318;42.620;23.338;2022-07-29T18:42:38;4.88;;;4.43;;
17872;SDS011;36318;42.620;23.338;2022-07-29T18:45:06;3.88;;;3.55;;
17872;SDS011;36318;42.620;23.338;2022-07-29T18:47:34;4.47;;;4.07;;
17872;SDS011;36318;42.620;23.338;2022-07-29T18:50:02;4.33;;;3.93;;
17872;SDS011;36318;42.620;23.338;2022-07-29T18:52:30;7.10;;;4.60;;
17872;SDS011;36318;42.620;23.338;2022-07-29T18:54:58;6.40;;;3.97;;
17872;SDS011;36318;42.620;23.338;2022-07-29T18:57:26;4.30;;;3.90;;
17872;SDS011;36318;42.620;23.338;2022-07-29T18:59:53;6.20;;;4.32;;
17872;SDS011;36318;42.620;23.338;2022-07-29T19:02:21;6.40;;;4.20;;
17872;SDS011;36318;42.620;23.338;2022-07-29T19:04:49;4.93;;;3.85;;
17872;SDS011;36318;42.620;23.338;2022-07-29T19:07:16;4.35;;;3.95;;
17872;SDS011;36318;42.620;23.338;2022-07-29T19:09:44;7.13;;;4.45;;
17872;SDS011;36318;42.620;23.338;2022-07-29T19:12:11;4.40;;;4.00;;
17872;SDS011;36318;42.620;23.338;2022-07-29T19:14:38;4.20;;;3.70;;
17872;SDS011;36318;42.620;23.338;2022-07-29T19:17:05;5.43;;;4.13;;
17872;SDS011;36318;42.620;23.338;2022-07-29T19:19:32;4.50;;;4.00;;
17872;SDS011;36318;42.620;23.338;2022-07-29T19:21:59;4.75;;;3.72;;
17872;SDS011;36318;42.620;23.338;2022-07-29T19:24:26;4.72;;;3.42;;
17872;SDS011;36318;42.620;23.338;2022-07-29T19:26:55;5.47;;;3.70;;
17872;SDS011;36318;42.620;23.338;2022-07-29T19:29:21;6.47;;;3.70;;
17872;SDS011;36318;42.620;23.338;2022-07-29T19:31:50;4.25;;;3.75;;
17872;SDS011;36318;42.620;23.338;2022-07-29T19:34:17;5.80;;;4.30;;
17872;SDS011;36318;42.620;23.338;2022-07-29T19:36:44;4.70;;;3.50;;
17872;SDS011;36318;42.620;23.338;2022-07-29T19:39:11;4.10;;;3.80;;
17872;SDS011;36318;42.620;23.338;2022-07-29T19:41:39;6.40;;;3.63;;
17872;SDS011;36318;42.620;23.338;2022-07-29T19:44:07;4.53;;;3.90;;
17872;SDS011;36318;42.620;23.338;2022-07-29T19:46:35;3.97;;;3.60;;
17872;SDS011;36318;42.620;23.338;2022-07-29T19:49:03;6.05;;;3.63;;
17872;SDS011;36318;42.620;23.338;2022-07-29T19:51:31;4.75;;;3.30;;
17872;SDS011;36318;42.620;23.338;2022-07-29T19:53:58;4.65;;;3.72;;
17872;SDS011;36318;42.620;23.338;2022-07-29T19:56:25;7.10;;;3.67;;
17872;SDS011;36318;42.620;23.338;2022-07-29T19:58:54;5.00;;;3.43;;
17872;SDS011;36318;42.620;23.338;2022-07-29T20:01:22;4.53;;;3.90;;
17872;SDS011;36318;42.620;23.338;2022-07-29T20:03:50;4.28;;;3.70;;
17872;SDS011;36318;42.620;23.338;2022-07-29T20:06:18;9.13;;;3.40;;
17872;SDS011;36318;42.620;23.338;2022-07-29T20:08:45;3.83;;;3.43;;
17872;SDS011;36318;42.620;23.338;2022-07-29T20:11:12;7.53;;;4.40;;
17872;SDS011;36318;42.620;23.338;2022-07-29T20:13:38;4.47;;;3.77;;
17872;SDS011;36318;42.620;23.338;2022-07-29T20:16:05;5.70;;;3.23;;
17872;SDS011;36318;42.620;23.338;2022-07-29T20:18:34;4.37;;;3.50;;
17872;SDS011;36318;42.620;23.338;2022-07-29T20:21:01;3.87;;;3.43;;
17872;SDS011;36318;42.620;23.338;2022-07-29T20:23:28;4.35;;;3.22;;
17872;SDS011;36318;42.620;23.338;2022-07-29T20:25:55;3.90;;;3.30;;
17872;SDS011;36318;42.620;23.338;2022-07-29T20:28:23;3.83;;;3.50;;
17872;SDS011;36318;42.620;23.338;2022-07-29T20:30:49;6.85;;;3.42;;
17872;SDS011;36318;42.620;23.338;2022-07-29T20:33:16;3.53;;;3.08;;
17872;SDS011;36318;42.620;23.338;2022-07-29T20:35:44;3.57;;;3.27;;
17872;SDS011;36318;42.620;23.338;2022-07-29T20:38:12;3.88;;;3.13;;
17872;SDS011;36318;42.620;23.338;2022-07-29T20:40:39;3.67;;;3.28;;
17872;SDS011;36318;42.620;23.338;2022-07-29T20:43:05;3.90;;;2.88;;
17872;SDS011;36318;42.620;23.338;2022-07-29T20:45:33;3.97;;;3.60;;
17872;SDS011;36318;42.620;23.338;2022-07-29T20:48:01;3.97;;;3.28;;
17872;SDS011;36318;42.620;23.338;2022-07-29T20:50:29;3.77;;;3.40;;
17872;SDS011;36318;42.620;23.338;2022-07-29T20:52:57;3.95;;;3.10;;
17872;SDS011;36318;42.620;23.338;2022-07-29T20:55:23;3.93;;;3.20;;
17872;SDS011;36318;42.620;23.338;2022-07-29T20:57:50;5.00;;;3.37;;
17872;SDS011;36318;42.620;23.338;2022-07-29T21:00:17;4.30;;;3.25;;
17872;SDS011;36318;42.620;23.338;2022-07-29T21:02:44;4.23;;;3.37;;
17872;SDS011;36318;42.620;23.338;2022-07-29T21:05:11;7.47;;;3.07;;
17872;SDS011;36318;42.620;23.338;2022-07-29T21:07:38;3.30;;;3.00;;
17872;SDS011;36318;42.620;23.338;2022-07-29T21:10:07;3.43;;;2.90;;
17872;SDS011;36318;42.620;23.338;2022-07-29T21:12:34;5.40;;;3.33;;
17872;SDS011;36318;42.620;23.338;2022-07-29T21:15:01;4.53;;;3.30;;
17872;SDS011;36318;42.620;23.338;2022-07-29T21:17:30;5.20;;;3.17;;
17872;SDS011;36318;42.620;23.338;2022-07-29T21:19:59;5.30;;;3.30;;
17872;SDS011;36318;42.620;23.338;2022-07-29T21:22:27;7.00;;;3.47;;
17872;SDS011;36318;42.620;23.338;2022-07-29T21:24:53;3.30;;;3.00;;
17872;SDS011;36318;42.620;23.338;2022-07-29T21:27:22;3.60;;;2.90;;
17872;SDS011;36318;42.620;23.338;2022-07-29T21:30:06;4.97;;;3.20;;
17872;SDS011;36318;42.620;23.338;2022-07-29T21:32:34;6.10;;;3.40;;
17872;SDS011;36318;42.620;23.338;2022-07-29T21:35:01;3.10;;;2.90;;
17872;SDS011;36318;42.620;23.338;2022-07-29T21:37:28;4.83;;;3.70;;
17872;SDS011;36318;42.620;23.338;2022-07-29T21:39:55;3.33;;;3.03;;
17872;SDS011;36318;42.620;23.338;2022-07-29T21:42:25;4.93;;;3.60;;
17872;SDS011;36318;42.620;23.338;2022-07-29T21:44:52;3.87;;;3.43;;
17872;SDS011;36318;42.620;23.338;2022-07-29T21:47:19;5.17;;;3.30;;
17872;SDS011;36318;42.620;23.338;2022-07-29T21:49:46;4.07;;;2.93;;
17872;SDS011;36318;42.620;23.338;2022-07-29T21:52:13;7.40;;;3.03;;
17872;SDS011;36318;42.620;23.338;2022-07-29T21:54:39;6.80;;;3.50;;
17872;SDS011;36318;42.620;23.338;2022-07-29T21:57:06;6.93;;;3.53;;
17872;SDS011;36318;42.620;23.338;2022-07-29T21:59:34;3.83;;;3.43;;
17872;SDS011;36318;42.620;23.338;2022-07-29T22:02:01;4.90;;;3.80;;
17872;SDS011;36318;42.620;23.338;2022-07-29T22:04:29;6.93;;;3.23;;
17872;SDS011;36318;42.620;23.338;2022-07-29T22:06:56;6.47;;;3.23;;
17872;SDS011;36318;42.620;23.338;2022-07-29T22:09:24;3.60;;;3.27;;
17872;SDS011;36318;42.620;23.338;2022-07-29T22:11:51;4.10;;;3.10;;
17872;SDS011;36318;42.620;23.338;2022-07-29T22:14:18;6.77;;;3.17;;
17872;SDS011;36318;42.620;23.338;2022-07-29T22:16:47;5.60;;;3.10;;
17872;SDS011;36318;42.620;23.338;2022-07-29T22:19:14;6.90;;;3.07;;
17872;SDS011;36318;42.620;23.338;2022-07-29T22:21:41;3.27;;;2.90;;
17872;SDS011;36318;42.620;23.338;2022-07-29T22:24:08;4.13;;;3.10;;
17872;SDS011;36318;42.620;23.338;2022-07-29T22:26:35;4.83;;;2.90;;
17872;SDS011;36318;42.620;23.338;2022-07-29T22:29:02;3.17;;;2.80;;
17872;SDS011;36318;42.620;23.338;2022-07-29T22:31:29;5.03;;;2.90;;
17872;SDS011;36318;42.620;23.338;2022-07-29T22:33:57;7.77;;;3.60;;
17872;SDS011;36318;42.620;23.338;2022-07-29T22:36:24;5.97;;;2.90;;
17872;SDS011;36318;42.620;23.338;2022-07-29T22:38:51;4.87;;;2.93;;
17872;SDS011;36318;42.620;23.338;2022-07-29T22:41:18;3.70;;;3.10;;
17872;SDS011;36318;42.620;23.338;2022-07-29T22:43:45;6.50;;;3.03;;
17872;SDS011;36318;42.620;23.338;2022-07-29T22:46:12;3.30;;;3.00;;
17872;SDS011;36318;42.620;23.338;2022-07-29T22:48:38;6.20;;;2.77;;
17872;SDS011;36318;42.620;23.338;2022-07-29T22:51:06;4.50;;;2.73;;
17872;SDS011;36318;42.620;23.338;2022-07-29T22:53:33;4.03;;;3.00;;
17872;SDS011;36318;42.620;23.338;2022-07-29T22:56:00;4.00;;;2.80;;
17872;SDS011;36318;42.620;23.338;2022-07-29T22:58:27;3.37;;;2.60;;
17872;SDS011;36318;42.620;23.338;2022-07-29T23:00:54;8.43;;;2.83;;
17872;SDS011;36318;42.620;23.338;2022-07-29T23:03:21;9.23;;;3.00;;
17872;SDS011;36318;42.620;23.338;2022-07-29T23:05:48;4.50;;;2.80;;
17872;SDS011;36318;42.620;23.338;2022-07-29T23:08:17;3.30;;;2.73;;
17872;SDS011;36318;42.620;23.338;2022-07-29T23:10:44;3.93;;;2.50;;
17872;SDS011;36318;42.620;23.338;2022-07-29T23:13:12;4.13;;;2.70;;
17872;SDS011;36318;42.620;23.338;2022-07-29T23:15:38;3.57;;;2.93;;
17872;SDS011;36318;42.620;23.338;2022-07-29T23:18:06;3.97;;;2.90;;
17872;SDS011;36318;42.620;23.338;2022-07-29T23:20:32;2.83;;;2.60;;
17872;SDS011;36318;42.620;23.338;2022-07-29T23:23:00;3.23;;;2.73;;
17872;SDS011;36318;42.620;23.338;2022-07-29T23:25:28;4.50;;;2.87;;
17872;SDS011;36318;42.620;23.338;2022-07-29T23:27:55;3.83;;;2.70;;
17872;SDS011;36318;42.620;23.338;2022-07-29T23:30:22;5.97;;;2.40;;
17872;SDS011;36318;42.620;23.338;2022-07-29T23:32:49;4.90;;;2.73;;
17872;SDS011;36318;42.620;23.338;2022-07-29T23:35:16;5.40;;;3.00;;
17872;SDS011;36318;42.620;23.338;2022-07-29T23:37:42;2.70;;;2.47;;
17872;SDS011;36318;42.620;23.338;2022-07-29T23:40:10;3.90;;;2.73;;
17872;SDS011;36318;42.620;23.338;2022-07-29T23:42:38;4.23;;;3.17;;
17872;SDS011;36318;42.620;23.338;2022-07-29T23:45:06;5.30;;;3.03;;